createdAt,value
2019-02-11T00:00:26.243Z,88.96
2019-02-11T00:01:26.057Z,89.28
2019-02-11T00:02:26.050Z,88.55
2019-02-11T00:03:26.032Z,89.07
2019-02-11T00:04:26.092Z,88.86
2019-02-11T00:05:26.025Z,89.28
2019-02-11T00:06:26.033Z,89.22
2019-02-11T00:07:26.007Z,89.48
2019-02-11T00:08:32.862Z,87.97
2019-02-11T00:09:26.033Z,86.83
2019-02-11T00:10:25.961Z,87.04
2019-02-11T00:11:25.960Z,86.21
2019-02-11T00:12:26.124Z,86.52
2019-02-11T00:13:25.961Z,86.83
2019-02-11T00:14:25.953Z,86.11
2019-02-11T00:15:27.244Z,85.18
2019-02-11T00:16:25.955Z,84.66
2019-02-11T00:17:26.748Z,84.77
2019-02-11T00:18:25.908Z,83.94
2019-02-11T00:19:26.821Z,83.01
2019-02-11T00:20:25.907Z,82.80
2019-02-11T00:21:25.924Z,82.95
2019-02-11T00:22:25.941Z,83.11
2019-02-11T00:23:25.935Z,83.53
2019-02-11T00:24:25.873Z,83.56
2019-02-11T00:25:25.887Z,84.19
2019-02-11T00:26:25.871Z,83.77
2019-02-11T00:27:25.823Z,83.15
2019-02-11T00:28:25.849Z,82.01
2019-02-11T00:29:25.948Z,82.22
2019-02-11T00:30:25.869Z,81.60
2019-02-11T00:31:25.832Z,82.12
2019-02-11T00:32:25.785Z,81.91
2019-02-11T00:33:25.787Z,81.54
2019-02-11T00:34:25.715Z,81.33
2019-02-11T00:35:25.768Z,80.88
2019-02-11T00:36:25.812Z,80.19
2019-02-11T00:37:25.696Z,80.91
2019-02-11T00:38:25.734Z,80.71
2019-02-11T00:39:25.705Z,81.12
2019-02-11T00:40:25.649Z,81.23
2019-02-11T00:41:25.654Z,81.02
2019-02-11T00:42:25.666Z,80.91
2019-02-11T00:43:25.686Z,80.40
2019-02-11T00:44:25.617Z,81.23
2019-02-11T00:45:25.607Z,81.43
2019-02-11T00:46:25.588Z,81.12
2019-02-11T00:47:25.579Z,82.57
2019-02-11T00:48:25.592Z,81.57
2019-02-11T00:49:25.647Z,82.19
2019-02-11T00:50:25.557Z,81.47
2019-02-11T00:51:25.612Z,81.47
2019-02-11T00:52:25.573Z,82.15
2019-02-11T00:53:25.517Z,82.50
2019-02-11T00:54:25.529Z,82.81
2019-02-11T00:55:25.575Z,82.29
2019-02-11T00:56:25.507Z,82.36
2019-02-11T00:57:25.523Z,82.19
2019-02-11T00:58:25.495Z,82.36
2019-02-11T00:59:25.462Z,82.19
2019-02-11T01:00:25.495Z,80.85
2019-02-11T01:01:25.634Z,80.64
2019-02-11T01:02:25.452Z,80.64
2019-02-11T01:03:25.447Z,80.22
2019-02-11T01:04:25.400Z,80.43
2019-02-11T01:05:25.520Z,79.81
2019-02-11T01:06:25.436Z,80.22
2019-02-11T01:07:25.380Z,80.26
2019-02-11T01:08:25.376Z,80.47
2019-02-11T01:09:25.437Z,80.33
2019-02-11T01:10:25.419Z,80.74
2019-02-11T01:11:25.450Z,80.26
2019-02-11T01:12:25.332Z,80.88
2019-02-11T01:13:27.907Z,81.09
2019-02-11T01:14:25.305Z,81.40
2019-02-11T01:15:25.315Z,81.30
2019-02-11T01:16:25.427Z,81.61
2019-02-11T01:17:25.259Z,81.75
2019-02-11T01:18:25.272Z,81.44
2019-02-11T01:19:25.256Z,81.34
2019-02-11T01:20:25.255Z,81.54
2019-02-11T01:21:25.270Z,82.27
2019-02-11T01:22:25.264Z,81.99
2019-02-11T01:23:25.226Z,82.62
2019-02-11T01:24:25.216Z,82.86
2019-02-11T01:25:25.207Z,83.38
2019-02-11T01:26:25.197Z,83.07
2019-02-11T01:27:25.202Z,83.69
2019-02-11T01:28:25.185Z,83.48
2019-02-11T01:29:25.192Z,84.94
2019-02-11T01:30:25.149Z,85.50
2019-02-11T01:31:25.159Z,86.02
2019-02-11T01:32:25.229Z,86.85
2019-02-11T01:33:25.178Z,87.88
2019-02-11T01:34:25.218Z,87.68
2019-02-11T01:35:25.100Z,88.34
2019-02-11T01:36:25.101Z,89.27
2019-02-11T01:37:25.120Z,89.79
2019-02-11T01:38:25.171Z,90.93
2019-02-11T01:39:25.096Z,91.18
2019-02-11T01:40:25.024Z,91.49
2019-02-11T01:41:25.067Z,92.32
2019-02-11T01:42:25.016Z,92.43
2019-02-11T01:43:25.046Z,92.01
2019-02-11T01:44:25.033Z,92.05
2019-02-11T01:45:25.021Z,92.26
2019-02-11T01:46:24.981Z,92.16
2019-02-11T01:47:25.053Z,92.57
2019-02-11T01:48:24.965Z,92.99
2019-02-11T01:49:24.944Z,92.99
2019-02-11T01:50:24.938Z,93.66
2019-02-11T01:51:24.897Z,93.66
2019-02-11T01:52:24.900Z,93.55
2019-02-11T01:53:24.914Z,93.03
2019-02-11T01:54:24.967Z,93.66
2019-02-11T01:55:24.923Z,93.87
2019-02-11T01:56:24.893Z,94.32
2019-02-11T01:57:24.852Z,94.53
2019-02-11T01:58:24.885Z,94.43
2019-02-11T01:59:24.861Z,94.84
2019-02-11T02:00:24.871Z,94.64
2019-02-11T02:01:24.887Z,95.05
2019-02-11T02:02:24.825Z,95.36
2019-02-11T02:03:24.798Z,94.43
2019-02-11T02:04:24.846Z,95.15
2019-02-11T02:05:24.800Z,94.78
2019-02-11T02:06:24.844Z,94.95
2019-02-11T02:07:24.784Z,94.32
2019-02-11T02:08:24.772Z,94.84
2019-02-11T02:09:24.761Z,94.89
2019-02-11T02:10:24.815Z,94.68
2019-02-11T02:11:24.724Z,95.09
2019-02-11T02:12:24.722Z,95.57
2019-02-11T02:13:24.709Z,94.74
2019-02-11T02:14:24.739Z,94.84
2019-02-11T02:15:24.701Z,95.36
2019-02-11T02:16:24.687Z,95.47
2019-02-11T02:17:24.701Z,94.84
2019-02-11T02:18:24.678Z,94.26
2019-02-11T02:19:24.670Z,94.78
2019-02-11T02:20:24.620Z,94.22
2019-02-11T02:21:24.665Z,94.06
2019-02-11T02:22:24.654Z,94.47
2019-02-11T02:23:24.607Z,94.78
2019-02-11T02:24:24.596Z,95.09
2019-02-11T02:25:24.629Z,94.99
2019-02-11T02:26:24.603Z,95.20
2019-02-11T02:27:25.409Z,95.40
2019-02-11T02:28:24.631Z,95.20
2019-02-11T02:29:24.557Z,95.09
2019-02-11T02:30:24.525Z,95.40
2019-02-11T02:31:24.530Z,95.14
2019-02-11T02:32:24.542Z,95.25
2019-02-11T02:33:24.506Z,95.14
2019-02-11T02:34:24.495Z,95.66
2019-02-11T02:35:24.564Z,95.35
2019-02-11T02:36:24.516Z,96.18
2019-02-11T02:37:24.564Z,94.76
2019-02-11T02:38:24.502Z,95.60
2019-02-11T02:39:24.921Z,96.01
2019-02-11T02:40:24.441Z,95.70
2019-02-11T02:41:24.428Z,96.12
2019-02-11T02:42:24.455Z,95.60
2019-02-11T02:43:24.406Z,96.12
2019-02-11T02:44:24.388Z,95.75
2019-02-11T02:45:24.391Z,96.16
2019-02-11T02:46:24.358Z,96.16
2019-02-11T02:47:24.356Z,96.00
2019-02-11T02:48:24.341Z,96.48
2019-02-11T02:49:24.331Z,96.06
2019-02-11T02:50:24.306Z,96.83
2019-02-11T02:51:24.321Z,96.58
2019-02-11T02:52:24.300Z,96.26
2019-02-11T02:53:24.331Z,96.42
2019-02-11T02:54:24.255Z,96.94
2019-02-11T02:55:24.245Z,96.83
2019-02-11T02:56:24.231Z,97.14
2019-02-11T02:57:24.229Z,96.94
2019-02-11T02:58:24.234Z,96.21
2019-02-11T02:59:24.302Z,96.21
2019-02-11T03:00:24.246Z,96.42
2019-02-11T03:01:24.241Z,96.46
2019-02-11T03:02:24.177Z,96.94
2019-02-11T03:03:24.245Z,97.56
2019-02-11T03:04:24.254Z,97.56
2019-02-11T03:05:24.168Z,96.98
2019-02-11T03:06:24.151Z,97.30
2019-02-11T03:07:24.131Z,97.14
2019-02-11T03:08:24.113Z,97.40
2019-02-11T03:09:24.161Z,97.50
2019-02-11T03:10:24.174Z,97.81
2019-02-11T03:11:24.098Z,97.30
2019-02-11T03:12:24.070Z,97.92
2019-02-11T03:13:24.086Z,97.71
2019-02-11T03:14:24.075Z,98.02
2019-02-11T03:15:24.099Z,97.40
2019-02-11T03:16:24.252Z,97.77
2019-02-11T03:17:24.023Z,97.56
2019-02-11T03:18:24.028Z,97.92
2019-02-11T03:19:23.985Z,97.77
2019-02-11T03:20:23.989Z,97.67
2019-02-11T03:21:23.989Z,97.81
2019-02-11T03:22:24.016Z,97.88
2019-02-11T03:23:24.005Z,97.56
2019-02-11T03:24:23.958Z,97.56
2019-02-11T03:25:23.930Z,97.56
2019-02-11T03:26:23.963Z,97.77
2019-02-11T03:27:23.940Z,97.35
2019-02-11T03:28:23.927Z,98.08
2019-02-11T03:29:23.913Z,98.08
2019-02-11T03:30:23.870Z,97.67
2019-02-11T03:31:23.901Z,97.88
2019-02-11T03:32:23.868Z,97.56
2019-02-11T03:33:23.881Z,97.77
2019-02-11T03:34:23.860Z,98.71
2019-02-11T03:35:23.856Z,98.77
2019-02-11T03:36:23.816Z,98.97
2019-02-11T03:37:23.878Z,99.18
2019-02-11T03:38:23.874Z,99.29
2019-02-11T03:39:23.802Z,98.97
2019-02-11T03:40:23.787Z,98.56
2019-02-11T03:41:23.781Z,98.25
2019-02-11T03:42:23.811Z,99.18
2019-02-11T03:43:23.746Z,98.77
2019-02-11T03:44:23.762Z,98.52
2019-02-11T03:45:23.774Z,98.20
2019-02-11T03:46:23.736Z,98.93
2019-02-11T03:47:23.701Z,99.04
2019-02-11T03:48:23.759Z,98.72
2019-02-11T03:49:23.704Z,98.83
2019-02-11T03:50:23.716Z,98.68
2019-02-11T03:51:23.715Z,98.16
2019-02-11T03:52:23.670Z,98.05
2019-02-11T03:53:23.691Z,97.95
2019-02-11T03:54:23.657Z,98.16
2019-02-11T03:55:23.618Z,98.05
2019-02-11T03:56:23.664Z,98.05
2019-02-11T03:57:23.619Z,97.85
2019-02-11T03:58:23.666Z,97.95
2019-02-11T03:59:23.658Z,97.85
2019-02-11T04:00:23.580Z,97.85
2019-02-11T04:01:23.586Z,97.80
2019-02-11T04:02:23.549Z,97.70
2019-02-11T04:03:23.588Z,97.38
2019-02-11T04:04:23.541Z,97.80
2019-02-11T04:05:23.545Z,98.11
2019-02-11T04:06:23.593Z,98.01
2019-02-11T04:07:23.551Z,97.86
2019-02-11T04:08:23.533Z,97.96
2019-02-11T04:09:23.496Z,97.65
2019-02-11T04:10:23.491Z,97.55
2019-02-11T04:11:23.460Z,97.34
2019-02-11T04:12:23.454Z,97.55
2019-02-11T04:13:23.454Z,97.30
2019-02-11T04:14:25.182Z,97.50
2019-02-11T04:15:23.440Z,97.61
2019-02-11T04:16:23.438Z,97.71
2019-02-11T04:17:23.425Z,97.40
2019-02-11T04:18:23.393Z,97.61
2019-02-11T04:19:23.379Z,96.67
2019-02-11T04:20:23.440Z,96.67
2019-02-11T04:21:23.350Z,96.62
2019-02-11T04:22:23.409Z,96.11
2019-02-11T04:23:23.333Z,95.90
2019-02-11T04:24:23.330Z,96.62
2019-02-11T04:25:23.331Z,95.86
2019-02-11T04:26:23.323Z,96.00
2019-02-11T04:27:23.294Z,95.13
2019-02-11T04:28:23.275Z,94.51
2019-02-11T04:29:23.284Z,94.92
2019-02-11T04:30:23.282Z,94.30
2019-02-11T04:31:23.317Z,94.92
2019-02-11T04:32:23.237Z,94.51
2019-02-11T04:33:23.243Z,94.71
2019-02-11T04:34:23.229Z,94.57
2019-02-11T04:35:23.219Z,95.19
2019-02-11T04:36:23.184Z,95.09
2019-02-11T04:37:23.222Z,95.09
2019-02-11T04:38:23.169Z,94.78
2019-02-11T04:39:23.189Z,95.23
2019-02-11T04:40:23.202Z,94.71
2019-02-11T04:41:23.766Z,94.67
2019-02-11T04:42:23.219Z,94.98
2019-02-11T04:43:23.133Z,94.46
2019-02-11T04:44:23.152Z,94.88
2019-02-11T04:45:23.105Z,94.67
2019-02-11T04:46:23.138Z,94.67
2019-02-11T04:47:23.108Z,94.46
2019-02-11T04:48:23.102Z,94.98
2019-02-11T04:49:23.091Z,94.15
2019-02-11T04:50:23.076Z,93.95
2019-02-11T04:51:23.041Z,94.67
2019-02-11T04:52:23.040Z,94.36
2019-02-11T04:53:23.129Z,94.26
2019-02-11T04:54:23.028Z,93.63
2019-02-11T04:55:23.055Z,93.95
2019-02-11T04:56:23.017Z,93.95
2019-02-11T04:57:23.010Z,94.05
2019-02-11T04:58:22.975Z,94.26
2019-02-11T04:59:22.988Z,94.01
2019-02-11T05:00:22.970Z,93.63
2019-02-11T05:01:22.938Z,93.63
2019-02-11T05:02:22.955Z,93.70
2019-02-11T05:03:22.977Z,93.84
2019-02-11T05:04:22.945Z,93.43
2019-02-11T05:05:22.941Z,93.01
2019-02-11T05:06:22.909Z,93.07
2019-02-11T05:07:22.918Z,93.07
2019-02-11T05:08:22.894Z,93.49
2019-02-11T05:09:22.874Z,93.38
2019-02-11T05:10:22.911Z,92.90
2019-02-11T05:11:22.845Z,93.70
2019-02-11T05:12:22.857Z,92.97
2019-02-11T05:13:22.833Z,93.22
2019-02-11T05:14:22.843Z,93.32
2019-02-11T05:15:22.815Z,93.12
2019-02-11T05:16:22.793Z,93.18
2019-02-11T05:17:22.820Z,93.49
2019-02-11T05:18:22.788Z,92.55
2019-02-11T05:19:22.812Z,92.35
2019-02-11T05:20:22.764Z,92.35
2019-02-11T05:21:22.766Z,92.30
2019-02-11T05:22:22.737Z,91.83
2019-02-11T05:23:22.739Z,92.03
2019-02-11T05:24:22.731Z,91.62
2019-02-11T05:25:22.738Z,92.14
2019-02-11T05:26:22.929Z,91.93
2019-02-11T05:27:22.685Z,92.24
2019-02-11T05:28:22.741Z,92.35
2019-02-11T05:29:22.675Z,92.03
2019-02-11T05:30:22.654Z,92.35
2019-02-11T05:31:22.635Z,92.24
2019-02-11T05:32:22.720Z,92.76
2019-02-11T05:33:22.666Z,91.93
2019-02-11T05:34:22.632Z,91.93
2019-02-11T05:35:22.635Z,91.93
2019-02-11T05:36:22.597Z,92.14
2019-02-11T05:37:22.591Z,92.03
2019-02-11T05:38:22.583Z,92.20
2019-02-11T05:39:22.572Z,92.14
2019-02-11T05:40:22.555Z,92.45
2019-02-11T05:41:22.652Z,92.45
2019-02-11T05:42:22.740Z,92.35
2019-02-11T05:43:22.654Z,93.18
2019-02-11T05:44:22.548Z,92.55
2019-02-11T05:45:22.635Z,92.35
2019-02-11T05:46:22.536Z,92.14
2019-02-11T05:47:22.520Z,92.35
2019-02-11T05:48:22.603Z,92.35
2019-02-11T05:49:23.963Z,92.45
2019-02-11T05:50:22.539Z,93.07
2019-02-11T05:51:22.674Z,93.18
2019-02-11T05:52:22.711Z,93.07
2019-02-11T05:53:23.433Z,92.97
2019-02-11T05:54:22.419Z,92.61
2019-02-11T05:55:23.901Z,92.14
2019-02-11T05:56:22.376Z,93.18
2019-02-11T05:57:22.417Z,92.97
2019-02-11T05:58:22.407Z,92.66
2019-02-11T05:59:22.420Z,93.02
2019-02-11T06:00:22.382Z,92.61
2019-02-11T06:01:22.366Z,92.76
2019-02-11T06:02:22.331Z,92.14
2019-02-11T06:03:22.356Z,92.45
2019-02-11T06:04:22.316Z,92.45
2019-02-11T06:05:22.292Z,92.41
2019-02-11T06:06:22.339Z,91.99
2019-02-11T06:07:22.305Z,91.78
2019-02-11T06:08:22.346Z,92.20
2019-02-11T06:09:23.289Z,91.89
2019-02-11T06:10:22.288Z,92.20
2019-02-11T06:11:22.237Z,92.30
2019-02-11T06:12:22.295Z,92.20
2019-02-11T06:13:22.226Z,91.58
2019-02-11T06:14:22.248Z,92.41
2019-02-11T06:15:22.190Z,91.99
2019-02-11T06:16:22.200Z,91.89
2019-02-11T06:17:22.170Z,92.20
2019-02-11T06:18:22.175Z,91.89
2019-02-11T06:19:22.193Z,91.99
2019-02-11T06:20:22.190Z,91.89
2019-02-11T06:21:22.178Z,91.89
2019-02-11T06:22:22.133Z,91.78
2019-02-11T06:23:22.104Z,92.16
2019-02-11T06:24:22.127Z,91.89
2019-02-11T06:25:22.162Z,92.20
2019-02-11T06:26:22.110Z,91.99
2019-02-11T06:27:22.058Z,91.37
2019-02-11T06:28:22.061Z,92.05
2019-02-11T06:29:22.074Z,92.05
2019-02-11T06:30:22.087Z,92.05
2019-02-11T06:31:22.084Z,91.95
2019-02-11T06:32:22.076Z,91.74
2019-02-11T06:33:21.995Z,92.05
2019-02-11T06:34:22.058Z,91.85
2019-02-11T06:35:22.047Z,91.95
2019-02-11T06:36:21.979Z,91.95
2019-02-11T06:37:22.032Z,92.16
2019-02-11T06:38:21.965Z,92.05
2019-02-11T06:39:21.980Z,91.85
2019-02-11T06:40:21.983Z,92.26
2019-02-11T06:41:21.941Z,92.26
2019-02-11T06:42:21.943Z,91.74
2019-02-11T06:43:21.935Z,91.85
2019-02-11T06:44:21.932Z,91.53
2019-02-11T06:45:21.900Z,91.85
2019-02-11T06:46:22.015Z,92.05
2019-02-11T06:47:21.920Z,92.16
2019-02-11T06:48:21.856Z,91.74
2019-02-11T06:49:21.847Z,91.22
2019-02-11T06:50:21.856Z,91.64
2019-02-11T06:51:21.860Z,91.43
2019-02-11T06:52:21.874Z,92.36
2019-02-11T06:53:21.808Z,92.16
2019-02-11T06:54:21.992Z,92.05
2019-02-11T06:55:21.787Z,91.95
2019-02-11T06:56:21.811Z,91.95
2019-02-11T06:57:21.782Z,91.33
2019-02-11T06:58:21.823Z,91.43
2019-02-11T06:59:21.767Z,91.64
2019-02-11T07:00:21.732Z,91.39
2019-02-11T07:01:21.747Z,91.28
2019-02-11T07:02:23.710Z,90.77
2019-02-11T07:03:21.790Z,91.18
2019-02-11T07:04:21.701Z,90.97
2019-02-11T07:05:21.707Z,91.39
2019-02-11T07:06:21.679Z,91.28
2019-02-11T07:07:21.699Z,91.49
2019-02-11T07:08:21.651Z,91.91
2019-02-11T07:09:21.660Z,91.80
2019-02-11T07:10:21.618Z,91.91
2019-02-11T07:11:21.628Z,92.22
2019-02-11T07:12:21.635Z,92.32
2019-02-11T07:13:21.608Z,91.91
2019-02-11T07:14:21.593Z,92.22
2019-02-11T07:15:22.576Z,91.70
2019-02-11T07:16:21.600Z,91.39
2019-02-11T07:17:21.552Z,91.45
2019-02-11T07:18:21.625Z,91.03
2019-02-11T07:19:21.557Z,90.93
2019-02-11T07:20:21.543Z,90.62
2019-02-11T07:21:21.533Z,91.08
2019-02-11T07:22:22.366Z,91.28
2019-02-11T07:23:21.485Z,91.03
2019-02-11T07:24:21.479Z,90.97
2019-02-11T07:25:21.462Z,90.77
2019-02-11T07:26:21.488Z,90.97
2019-02-11T07:27:21.468Z,89.94
2019-02-11T07:28:21.434Z,89.31
2019-02-11T07:29:21.422Z,89.28
2019-02-11T07:30:21.451Z,89.48
2019-02-11T07:31:21.430Z,88.96
2019-02-11T07:32:21.537Z,89.38
2019-02-11T07:33:21.392Z,89.48
2019-02-11T07:34:21.367Z,89.65
2019-02-11T07:35:21.380Z,88.82
2019-02-11T07:36:22.944Z,87.99
2019-02-11T07:37:21.355Z,87.68
2019-02-11T07:38:21.355Z,87.57
2019-02-11T07:39:21.336Z,87.93
2019-02-11T07:40:21.360Z,87.16
2019-02-11T07:41:21.291Z,87.37
2019-02-11T07:42:21.350Z,87.78
2019-02-11T07:43:23.930Z,88.09
2019-02-11T07:44:21.301Z,88.13
2019-02-11T07:45:28.694Z,88.09
2019-02-11T07:46:22.242Z,88.40
2019-02-11T07:47:21.240Z,88.30
2019-02-11T07:48:21.265Z,88.71
2019-02-11T07:49:21.238Z,88.20
2019-02-11T07:50:21.242Z,88.71
2019-02-11T07:51:21.219Z,88.09
2019-02-11T07:52:26.646Z,88.82
2019-02-11T07:53:22.265Z,89.34
2019-02-11T07:54:21.289Z,89.23
2019-02-11T07:55:21.192Z,89.34
2019-02-11T07:56:21.191Z,89.28
2019-02-11T07:57:21.228Z,90.20
2019-02-11T07:58:21.153Z,90.45
2019-02-11T07:59:21.108Z,91.39
2019-02-11T08:00:21.084Z,91.60
2019-02-11T08:01:21.083Z,92.94
2019-02-11T08:02:21.084Z,93.66
2019-02-11T08:03:21.073Z,93.98
2019-02-11T08:04:21.080Z,94.08
2019-02-11T08:05:21.051Z,94.60
2019-02-11T08:06:21.149Z,95.01
2019-02-11T08:07:21.890Z,95.22
2019-02-11T08:08:23.916Z,95.64
2019-02-11T08:09:20.999Z,96.05
2019-02-11T08:10:21.012Z,95.84
2019-02-11T08:11:20.973Z,95.74
2019-02-11T08:12:20.970Z,95.59
2019-02-11T08:13:21.026Z,95.32
2019-02-11T08:14:20.987Z,95.22
2019-02-11T08:15:20.989Z,95.28
2019-02-11T08:16:21.033Z,94.97
2019-02-11T08:17:20.915Z,94.14
2019-02-11T08:18:21.840Z,94.66
2019-02-11T08:19:20.907Z,93.52
2019-02-11T08:20:21.894Z,93.58
2019-02-11T08:21:20.903Z,93.99
2019-02-11T08:22:20.893Z,93.58
2019-02-11T08:23:20.867Z,93.58
2019-02-11T08:24:20.875Z,93.06
2019-02-11T08:25:21.428Z,92.44
2019-02-11T08:26:21.515Z,92.13
2019-02-11T08:27:20.849Z,92.44
2019-02-11T08:28:20.857Z,92.13
2019-02-11T08:29:20.872Z,92.40
2019-02-11T08:30:20.780Z,91.82
2019-02-11T08:31:22.427Z,91.36
2019-02-11T08:32:20.790Z,90.95
2019-02-11T08:33:20.853Z,91.47
2019-02-11T08:34:20.779Z,90.64
2019-02-11T08:35:20.746Z,90.95
2019-02-11T08:36:20.790Z,90.95
2019-02-11T08:37:20.703Z,90.33
2019-02-11T08:38:20.700Z,89.40
2019-02-11T08:39:21.419Z,89.71
2019-02-11T08:40:20.665Z,89.81
2019-02-11T08:41:20.687Z,89.09
2019-02-11T08:42:20.671Z,89.19
2019-02-11T08:43:20.831Z,89.15
2019-02-11T08:44:20.626Z,89.04
2019-02-11T08:45:20.656Z,88.94
2019-02-11T08:46:20.632Z,88.94
2019-02-11T08:47:21.055Z,89.15
2019-02-11T08:48:20.675Z,89.15
2019-02-11T08:49:20.575Z,89.04
2019-02-11T08:50:20.566Z,88.59
2019-02-11T08:51:20.597Z,88.01
2019-02-11T08:52:20.591Z,87.70
2019-02-11T08:53:20.568Z,87.91
2019-02-11T08:54:20.589Z,88.32
2019-02-11T08:55:20.515Z,87.87
2019-02-11T08:56:20.517Z,87.49
2019-02-11T08:57:20.519Z,87.39
2019-02-11T08:58:20.498Z,87.60
2019-02-11T08:59:20.512Z,87.81
2019-02-11T09:00:20.509Z,88.01
2019-02-11T09:01:20.476Z,87.54
2019-02-11T09:02:20.623Z,88.64
2019-02-11T09:03:20.457Z,88.94
2019-02-11T09:04:20.468Z,88.64
2019-02-11T09:05:20.462Z,88.16
2019-02-11T09:06:20.510Z,87.60
2019-02-11T09:07:20.441Z,87.08
2019-02-11T09:08:20.408Z,86.40
2019-02-11T09:09:20.386Z,86.19
2019-02-11T09:10:20.409Z,86.36
2019-02-11T09:11:20.536Z,86.15
2019-02-11T09:12:20.357Z,86.46
2019-02-11T09:13:20.386Z,85.94
2019-02-11T09:14:20.384Z,85.94
2019-02-11T09:15:20.320Z,83.87
2019-02-11T09:16:30.981Z,83.98
2019-02-11T09:17:20.325Z,84.39
2019-02-11T09:18:20.832Z,83.56
2019-02-11T09:19:20.291Z,83.05
2019-02-11T09:20:20.265Z,82.43
2019-02-11T09:21:20.228Z,82.32
2019-02-11T09:22:20.313Z,82.32
2019-02-11T09:23:20.248Z,81.60
2019-02-11T09:24:20.233Z,82.53
2019-02-11T09:25:20.234Z,82.32
2019-02-11T09:26:20.250Z,82.12
2019-02-11T09:27:20.218Z,82.01
2019-02-11T09:28:20.204Z,81.56
2019-02-11T09:29:20.159Z,81.15
2019-02-11T09:30:20.181Z,81.15
2019-02-11T09:31:20.183Z,80.53
2019-02-11T09:32:20.174Z,79.29
2019-02-11T09:33:20.245Z,80.11
2019-02-11T09:34:20.219Z,79.08
2019-02-11T09:35:20.116Z,79.49
2019-02-11T09:36:20.113Z,78.88
2019-02-11T09:37:20.095Z,78.84
2019-02-11T09:38:20.067Z,78.77
2019-02-11T09:39:20.189Z,78.74
2019-02-11T09:40:20.042Z,77.91
2019-02-11T09:41:20.157Z,77.39
2019-02-11T09:42:20.085Z,78.74
2019-02-11T09:43:20.045Z,77.29
2019-02-11T09:44:20.000Z,76.36
2019-02-11T09:45:20.018Z,76.46
2019-02-11T09:46:19.992Z,77.08
2019-02-11T09:47:19.976Z,76.43
2019-02-11T09:48:20.048Z,76.53
2019-02-11T09:49:19.965Z,74.57
2019-02-11T09:50:20.041Z,74.88
2019-02-11T09:51:19.958Z,74.26
2019-02-11T09:52:19.921Z,74.77
2019-02-11T09:53:19.944Z,72.61
2019-02-11T09:54:19.940Z,73.43
2019-02-11T09:55:19.937Z,73.71
2019-02-11T09:56:19.937Z,73.60
2019-02-11T09:57:19.885Z,72.88
2019-02-11T09:58:19.902Z,73.39
2019-02-11T09:59:19.848Z,73.09
2019-02-11T10:00:19.902Z,72.67
2019-02-11T10:01:19.828Z,73.91
2019-02-11T10:02:19.857Z,72.26
2019-02-11T10:03:19.803Z,71.57
2019-02-11T10:04:19.785Z,72.50
2019-02-11T10:05:19.835Z,73.43
2019-02-11T10:06:19.783Z,72.67
2019-02-11T10:07:19.842Z,71.78
2019-02-11T10:08:19.937Z,72.26
2019-02-11T10:09:19.776Z,71.75
2019-02-11T10:10:20.137Z,71.85
2019-02-11T10:11:19.765Z,71.33
2019-02-11T10:12:21.483Z,71.95
2019-02-11T10:13:19.691Z,73.50
2019-02-11T10:14:19.745Z,72.36
2019-02-11T10:15:19.707Z,70.06
2019-02-11T10:16:19.664Z,69.68
2019-02-11T10:17:19.672Z,70.40
2019-02-11T10:18:19.717Z,69.96
2019-02-11T10:19:19.684Z,70.06
2019-02-11T10:20:19.757Z,69.24
2019-02-11T10:21:19.634Z,68.41
2019-02-11T10:22:19.738Z,69.85
2019-02-11T10:23:19.597Z,69.24
2019-02-11T10:24:19.716Z,68.62
2019-02-11T10:25:19.593Z,68.41
2019-02-11T10:26:19.559Z,67.69
2019-02-11T10:27:19.556Z,67.58
2019-02-11T10:28:19.574Z,67.66
2019-02-11T10:29:19.558Z,66.97
2019-02-11T10:30:19.532Z,67.69
2019-02-11T10:31:19.558Z,67.86
2019-02-11T10:32:19.532Z,67.32
2019-02-11T10:33:19.498Z,67.52
2019-02-11T10:34:19.478Z,66.80
2019-02-11T10:35:19.490Z,65.98
2019-02-11T10:36:19.471Z,67.08
2019-02-11T10:37:19.442Z,64.81
2019-02-11T10:38:19.573Z,65.64
2019-02-11T10:39:19.470Z,65.74
2019-02-11T10:40:19.443Z,65.95
2019-02-11T10:41:19.575Z,65.84
2019-02-11T10:44:21.715Z,66.36
2019-02-11T10:45:21.680Z,65.53
2019-02-11T10:46:21.650Z,65.02
2019-02-11T10:47:21.648Z,64.09
2019-02-11T10:48:21.620Z,63.92
2019-02-11T10:49:21.617Z,64.02
2019-02-11T10:50:21.609Z,63.81
2019-02-11T10:51:21.581Z,64.12
2019-02-11T10:52:21.605Z,64.22
2019-02-11T10:53:21.608Z,64.50
2019-02-11T10:54:21.621Z,63.99
2019-02-11T10:55:21.556Z,63.78
2019-02-11T10:56:21.878Z,62.16
2019-02-11T10:57:21.513Z,62.06
2019-02-11T10:58:21.500Z,62.16
2019-02-11T10:59:21.609Z,62.99
2019-02-11T11:00:21.557Z,64.12
2019-02-11T11:01:21.493Z,63.29
2019-02-11T11:02:21.462Z,62.68
2019-02-11T11:03:21.461Z,64.43
2019-02-11T11:04:21.456Z,63.78
2019-02-11T11:05:21.669Z,65.12
2019-02-11T11:06:21.468Z,63.57
2019-02-11T11:07:21.404Z,63.57
2019-02-11T11:08:21.468Z,64.47
2019-02-11T11:09:21.458Z,64.37
2019-02-11T11:10:21.377Z,63.75
2019-02-11T11:11:21.380Z,62.31
2019-02-11T11:12:21.537Z,63.24
2019-02-11T11:13:21.368Z,63.45
2019-02-11T11:14:21.346Z,62.24
2019-02-11T11:15:21.388Z,62.85
2019-02-11T11:16:29.181Z,62.65
2019-02-11T11:17:22.320Z,62.57
2019-02-11T11:18:21.312Z,62.65
2019-02-11T11:19:21.289Z,62.13
2019-02-11T11:20:21.288Z,61.82
2019-02-11T11:21:21.263Z,62.93
2019-02-11T11:22:21.265Z,62.62
2019-02-11T11:23:21.251Z,61.82
2019-02-11T11:24:21.249Z,62.41
2019-02-11T11:25:21.287Z,62.10
2019-02-11T11:26:21.213Z,63.24
2019-02-11T11:27:21.214Z,61.82
2019-02-11T11:28:21.206Z,62.44
2019-02-11T11:29:21.184Z,62.24
2019-02-11T11:30:21.235Z,63.96
2019-02-11T11:31:21.156Z,63.54
2019-02-11T11:32:21.159Z,63.34
2019-02-11T11:33:21.170Z,63.34
2019-02-11T11:34:21.132Z,63.24
2019-02-11T11:35:21.164Z,64.17
2019-02-11T11:36:21.152Z,62.00
2019-02-11T11:37:21.127Z,62.54
2019-02-11T11:38:22.105Z,64.09
2019-02-11T11:39:21.228Z,63.47
2019-02-11T11:40:23.217Z,64.09
2019-02-11T11:41:21.214Z,63.78
2019-02-11T11:42:21.717Z,63.06
2019-02-11T11:43:21.061Z,62.68
2019-02-11T11:44:21.073Z,64.12
2019-02-11T11:45:21.025Z,64.12
2019-02-11T11:46:21.057Z,62.37
2019-02-11T11:47:21.046Z,62.16
2019-02-11T11:48:21.018Z,62.47
2019-02-11T11:49:21.116Z,63.09
2019-02-11T11:50:21.018Z,63.50
2019-02-11T11:51:20.976Z,62.26
2019-02-11T11:52:20.963Z,62.47
2019-02-11T11:53:20.983Z,62.68
2019-02-11T11:54:20.947Z,62.68
2019-02-11T11:55:20.938Z,63.01
2019-02-11T11:56:20.916Z,63.19
2019-02-11T11:57:20.917Z,62.47
2019-02-11T11:58:20.971Z,62.78
2019-02-11T11:59:21.095Z,62.92
2019-02-11T12:00:20.942Z,63.64
2019-02-11T12:01:20.851Z,63.19
2019-02-11T12:02:20.843Z,62.26
2019-02-11T12:03:21.957Z,62.26
2019-02-11T12:04:20.863Z,64.15
2019-02-11T12:05:20.883Z,63.84
2019-02-11T12:06:20.805Z,63.95
2019-02-11T12:07:20.787Z,64.04
2019-02-11T12:08:20.801Z,64.67
2019-02-11T12:09:20.821Z,64.77
2019-02-11T12:10:20.871Z,64.25
2019-02-11T12:11:20.827Z,64.64
2019-02-11T12:12:20.738Z,64.74
2019-02-11T12:13:23.310Z,65.36
2019-02-11T12:14:20.756Z,65.05
2019-02-11T12:15:20.748Z,65.46
2019-02-11T12:16:20.704Z,65.67
2019-02-11T12:17:20.682Z,65.36
2019-02-11T12:18:20.668Z,65.70
2019-02-11T12:19:20.716Z,65.59
2019-02-11T12:20:20.685Z,66.11
2019-02-11T12:21:20.640Z,65.49
2019-02-11T12:22:20.636Z,66.52
2019-02-11T12:23:20.644Z,66.94
2019-02-11T12:24:21.234Z,66.97
2019-02-11T12:25:20.636Z,68.10
2019-02-11T12:26:21.731Z,69.54
2019-02-11T12:27:20.615Z,71.33
2019-02-11T12:28:20.610Z,73.85
2019-02-11T12:29:20.560Z,73.43
2019-02-11T12:30:20.554Z,74.26
2019-02-11T12:31:20.545Z,74.60
2019-02-11T12:32:20.535Z,75.19
2019-02-11T12:33:20.516Z,75.12
2019-02-11T12:34:20.506Z,75.74
2019-02-11T12:35:20.499Z,74.81
2019-02-11T12:36:20.675Z,74.60
2019-02-11T12:37:20.489Z,74.81
2019-02-11T12:38:20.474Z,74.60
2019-02-11T12:39:20.465Z,74.46
2019-02-11T12:40:20.451Z,73.85
2019-02-11T12:41:20.456Z,73.19
2019-02-11T12:42:20.437Z,74.02
2019-02-11T12:43:20.428Z,73.50
2019-02-11T12:44:20.426Z,72.47
2019-02-11T12:45:20.401Z,72.23
2019-02-11T12:46:20.371Z,71.92
2019-02-11T12:47:20.371Z,69.96
2019-02-11T12:48:20.381Z,70.27
2019-02-11T12:49:20.356Z,69.34
2019-02-11T12:50:20.367Z,68.59
2019-02-11T12:51:20.308Z,68.17
2019-02-11T12:52:20.334Z,67.14
2019-02-11T12:53:29.838Z,67.00
2019-02-11T12:55:37.662Z,66.28